createdAt,value
2023-01-19T00:08:03.389Z,4.90
2023-01-19T00:18:02.608Z,4.20
2023-01-19T00:28:02.421Z,4.70
2023-01-19T00:37:56.718Z,4.60
2023-01-19T00:47:56.344Z,5.00
2023-01-19T00:57:55.987Z,5.00
2023-01-19T01:07:55.630Z,4.80
2023-01-19T01:17:56.908Z,4.80
2023-01-19T01:27:54.971Z,4.80
2023-01-19T01:37:54.656Z,4.80
2023-01-19T01:47:54.272Z,4.80
2023-01-19T01:57:50.295Z,4.50
2023-01-19T02:07:47.863Z,4.60
2023-01-19T02:17:47.567Z,5.20
2023-01-19T02:27:47.257Z,4.50
2023-01-19T02:37:46.895Z,4.50
2023-01-19T02:47:46.335Z,4.90
2023-01-19T02:57:45.945Z,4.40
2023-01-19T03:07:45.746Z,3.80
2023-01-19T03:17:39.705Z,4.30
2023-01-19T03:27:39.469Z,4.70
2023-01-19T03:37:38.952Z,4.10
2023-01-19T03:47:38.702Z,4.10
2023-01-19T03:57:38.345Z,3.50
2023-01-19T04:07:37.965Z,4.10
2023-01-19T04:17:37.439Z,3.80
2023-01-19T04:27:31.963Z,4.00
2023-01-19T04:37:31.608Z,3.50
2023-01-19T04:47:31.268Z,3.30
2023-01-19T04:57:30.905Z,3.20
2023-01-19T05:07:30.547Z,3.50
2023-01-19T05:17:30.182Z,3.50
2023-01-19T05:27:29.692Z,4.00
2023-01-19T05:37:24.100Z,4.40
2023-01-19T05:47:23.770Z,3.80
2023-01-19T05:57:23.364Z,3.90
2023-01-19T06:07:24.366Z,4.30
2023-01-19T06:17:22.629Z,3.30
2023-01-19T06:27:22.297Z,3.90
2023-01-19T06:37:16.519Z,2.60
2023-01-19T06:47:16.667Z,2.50
2023-01-19T06:57:15.780Z,2.10
2023-01-19T07:07:15.571Z,2.30
2023-01-19T07:17:15.050Z,2.00
2023-01-19T07:27:14.862Z,2.10
2023-01-19T07:37:14.327Z,2.20
2023-01-19T07:47:08.609Z,1.90
2023-01-19T07:57:08.133Z,2.20
2023-01-19T08:07:07.904Z,2.40
2023-01-19T08:17:07.390Z,4.10
2023-01-19T08:27:07.052Z,3.90
2023-01-19T08:37:06.670Z,5.40
2023-01-19T08:47:01.115Z,5.50
2023-01-19T08:57:01.051Z,6.10
2023-01-19T09:07:00.404Z,5.80
2023-01-19T09:16:59.814Z,6.50
2023-01-19T09:26:59.592Z,6.40
2023-01-19T09:36:59.446Z,5.70
2023-01-19T09:46:53.584Z,6.00
2023-01-19T09:56:53.407Z,6.00
2023-01-19T10:06:52.849Z,6.00
2023-01-19T10:16:52.474Z,5.40
2023-01-19T10:26:52.120Z,4.30
2023-01-19T10:36:51.905Z,7.90
2023-01-19T10:46:46.203Z,7.70
2023-01-19T10:56:45.850Z,4.50
2023-01-19T11:06:45.475Z,4.90
2023-01-19T11:16:45.313Z,7.50
2023-01-19T11:26:44.912Z,7.00
2023-01-19T11:36:44.563Z,8.90
2023-01-19T11:46:38.849Z,8.80
2023-01-19T11:56:38.635Z,10.10
2023-01-19T12:06:38.280Z,8.90
2023-01-19T12:16:37.843Z,8.90
2023-01-19T12:26:37.399Z,9.20
2023-01-19T12:36:37.346Z,8.40
2023-01-19T12:46:32.000Z,8.70
2023-01-19T12:56:31.259Z,8.40
2023-01-19T13:06:31.054Z,8.80
2023-01-19T13:16:30.506Z,9.50
2023-01-19T13:26:30.131Z,8.70
2023-01-19T13:36:29.801Z,10.70
2023-01-19T13:46:29.870Z,9.90
2023-01-19T13:56:23.576Z,10.70
2023-01-19T14:06:23.564Z,8.30
2023-01-19T14:16:22.812Z,9.80
2023-01-19T14:26:22.592Z,8.70
2023-01-19T14:36:22.253Z,9.30
2023-01-19T14:46:21.879Z,10.10
2023-01-19T14:56:21.484Z,10.00
2023-01-19T15:06:15.735Z,9.00
2023-01-19T15:16:15.125Z,9.00
2023-01-19T15:26:14.795Z,8.30
2023-01-19T15:36:15.878Z,6.60
2023-01-19T15:46:14.049Z,8.50
2023-01-19T15:56:13.482Z,8.10
2023-01-19T16:06:13.269Z,5.90
2023-01-19T16:16:07.380Z,8.00
2023-01-19T16:26:07.014Z,6.90
2023-01-19T16:36:06.515Z,7.50
2023-01-19T16:46:06.312Z,9.00
2023-01-19T16:56:05.730Z,8.20
2023-01-19T17:06:05.500Z,10.90
2023-01-19T17:16:05.109Z,11.00
2023-01-19T17:25:59.781Z,10.00
2023-01-19T17:35:59.088Z,12.50
2023-01-19T17:45:58.766Z,12.20
2023-01-19T17:55:58.478Z,12.60
2023-01-19T18:05:57.970Z,8.80
2023-01-19T18:15:57.660Z,8.60
2023-01-19T18:25:57.217Z,8.60
2023-01-19T18:35:51.793Z,7.70
2023-01-19T18:45:51.415Z,7.90
2023-01-19T18:55:51.932Z,7.10
2023-01-19T19:05:50.671Z,7.90
2023-01-19T19:15:50.391Z,7.40
2023-01-19T19:25:50.139Z,7.20
2023-01-19T19:35:49.439Z,6.70
2023-01-19T19:45:43.919Z,7.10
2023-01-19T19:55:43.681Z,6.60
2023-01-19T20:05:43.445Z,6.40
2023-01-19T20:15:42.839Z,7.20
2023-01-19T20:25:42.554Z,7.60
2023-01-19T20:35:42.009Z,7.00
2023-01-19T20:45:41.989Z,6.90
2023-01-19T20:55:35.994Z,7.00
2023-01-19T21:05:35.617Z,7.30
2023-01-19T21:15:35.244Z,7.10
2023-01-19T21:25:34.896Z,6.80
2023-01-19T21:35:34.506Z,7.30
2023-01-19T21:45:34.308Z,6.70
2023-01-19T21:55:33.767Z,6.60
2023-01-19T22:05:28.430Z,7.10
2023-01-19T22:15:27.861Z,6.70
2023-01-19T22:25:27.493Z,7.00
2023-01-19T22:35:27.067Z,7.70
2023-01-19T22:45:26.857Z,7.20
2023-01-19T22:55:26.476Z,8.70
2023-01-19T23:05:25.981Z,8.60
2023-01-19T23:15:25.574Z,7.80
2023-01-19T23:25:20.241Z,8.70
2023-01-19T23:35:19.704Z,7.80
2023-01-19T23:45:19.314Z,8.50
2023-01-19T23:55:19.278Z,7.60
